createdAt,value
2019-01-15T16:00:07.131Z,-1.68
2019-01-15T16:02:56.287Z,-1.72
2019-01-15T16:05:49.253Z,-1.70
2019-01-15T16:08:27.259Z,-1.79
2019-01-15T16:11:15.932Z,-1.78
2019-01-15T16:14:15.420Z,-1.76
2019-01-15T16:17:03.855Z,-1.91
2019-01-15T16:19:57.378Z,-1.93
2019-01-15T16:22:53.550Z,-1.92
2019-01-15T16:25:42.526Z,-1.89
2019-01-15T16:28:38.698Z,-2.06
2019-01-15T16:31:23.230Z,-2.02
2019-01-15T16:34:11.841Z,-2.03
2019-01-15T16:37:08.215Z,-2.10
2019-01-15T16:39:48.588Z,-2.10
2019-01-15T16:42:38.825Z,-2.14
2019-01-15T16:45:36.189Z,-2.12
2019-01-15T16:48:35.557Z,-2.12
2019-01-15T16:51:26.039Z,-2.28
2019-01-15T16:54:14.267Z,-2.29
2019-01-15T16:57:02.855Z,-2.36
2019-01-15T17:00:11.305Z,-2.37
2019-01-15T17:03:00.082Z,-2.38
2019-01-15T17:05:50.354Z,-2.50
2019-01-15T17:08:36.970Z,-2.40
2019-01-15T17:11:30.034Z,-2.51
2019-01-15T17:14:24.319Z,-2.58
2019-01-15T17:17:20.958Z,-2.61
2019-01-15T17:20:23.607Z,-2.58
2019-01-15T17:23:18.777Z,-2.53
2019-01-15T17:26:21.368Z,-2.57
2019-01-15T17:29:10.008Z,-2.67
2019-01-15T17:32:06.486Z,-2.61
2019-01-15T17:34:59.538Z,-2.76
2019-01-15T17:37:52.557Z,-2.83
2019-01-15T17:40:37.700Z,-2.80
2019-01-15T17:43:32.243Z,-2.87
2019-01-15T17:46:41.106Z,-2.99
2019-01-15T17:49:40.342Z,-2.98
2019-01-15T17:52:43.744Z,-2.97
2019-01-15T17:55:37.089Z,-2.99
2019-01-15T17:58:24.490Z,-2.98
2019-01-15T18:01:14.764Z,-3.04
2019-01-15T18:05:03.298Z,-3.08
2019-01-15T18:08:36.606Z,-3.07
2019-01-15T18:11:20.043Z,-3.17
2019-01-15T18:14:58.160Z,-3.09
2019-01-15T18:17:58.785Z,-3.07
2019-01-15T18:20:52.511Z,-3.11
2019-01-15T18:24:02.593Z,-3.10
2019-01-15T18:27:45.223Z,-3.14
2019-01-15T18:31:21.644Z,-3.14
2019-01-15T18:34:53.570Z,-3.11
2019-01-15T18:38:02.112Z,-3.11
2019-01-15T18:41:39.355Z,-3.13
2019-01-15T18:44:36.938Z,-3.11
2019-01-15T18:47:25.648Z,-3.13
2019-01-15T18:50:20.014Z,-3.09
2019-01-15T18:53:25.333Z,-3.08
2019-01-15T18:56:21.495Z,-3.17
2019-01-15T18:59:10.911Z,-3.18
2019-01-15T19:02:03.889Z,-3.12
2019-01-15T19:04:57.985Z,-3.14
2019-01-15T19:07:47.932Z,-3.21
2019-01-15T19:10:36.752Z,-3.21
2019-01-15T19:13:27.028Z,-3.22
2019-01-15T19:16:15.795Z,-3.28
2019-01-15T19:19:11.887Z,-3.31
2019-01-15T19:22:15.632Z,-3.28
2019-01-15T19:25:11.932Z,-3.26
2019-01-15T19:28:02.098Z,-3.34
2019-01-15T19:30:50.829Z,-3.36
2019-01-15T19:33:39.509Z,-3.37
2019-01-15T19:36:27.836Z,-3.32
2019-01-15T19:39:16.574Z,-3.32
2019-01-15T19:42:15.751Z,-3.35
2019-01-15T19:45:04.697Z,-3.32
2019-01-15T19:47:54.857Z,-3.26
2019-01-15T19:50:52.672Z,-3.37
2019-01-15T19:53:55.025Z,-3.34
2019-01-15T19:56:43.739Z,-3.37
2019-01-15T19:59:48.938Z,-3.34
2019-01-15T20:02:47.843Z,-3.34
2019-01-15T20:05:41.267Z,-3.30
2019-01-15T20:08:31.867Z,-3.34
2019-01-15T20:11:24.892Z,-3.31
2019-01-15T20:14:24.098Z,-3.30
2019-01-15T20:17:18.340Z,-3.29
2019-01-15T20:20:10.999Z,-3.34
2019-01-15T20:23:19.130Z,-3.39
2019-01-15T20:26:09.229Z,-3.35
2019-01-15T20:29:08.969Z,-3.40
2019-01-15T20:31:59.020Z,-3.40
2019-01-15T20:34:49.280Z,-3.42
2019-01-15T20:37:54.542Z,-3.40
2019-01-15T20:40:43.580Z,-3.41
2019-01-15T20:43:48.856Z,-3.38
2019-01-15T20:46:39.114Z,-3.41
2019-01-15T20:49:23.955Z,-3.42
2019-01-15T20:52:20.092Z,-3.42
2019-01-15T20:55:10.281Z,-3.49
2019-01-15T20:57:59.563Z,-3.46
2019-01-15T21:00:49.608Z,-3.51
2019-01-15T21:03:39.818Z,-3.57
2019-01-15T21:06:21.850Z,-3.52
2019-01-15T21:09:10.947Z,-3.60
2019-01-15T21:12:01.190Z,-3.62
2019-01-15T21:14:50.205Z,-3.66
2019-01-15T21:17:55.327Z,-3.61
2019-01-15T21:20:44.039Z,-3.64
2019-01-15T21:23:44.431Z,-3.59
2019-01-15T21:26:46.748Z,-3.61
2019-01-15T21:29:35.515Z,-3.65
2019-01-15T21:32:28.595Z,-3.68
2019-01-15T21:35:17.984Z,-3.65
2019-01-15T21:38:00.739Z,-3.54
2019-01-15T21:41:09.318Z,-3.56
2019-01-15T21:43:58.333Z,-3.64
2019-01-15T21:47:03.687Z,-3.58
2019-01-15T21:50:05.609Z,-3.50
2019-01-15T21:53:14.343Z,-3.59
2019-01-15T21:56:22.869Z,-3.51
2019-01-15T21:59:12.142Z,-3.55
2019-01-15T22:02:12.260Z,-3.64
2019-01-15T22:05:01.367Z,-3.55
2019-01-15T22:07:57.839Z,-3.57
2019-01-15T22:10:48.046Z,-3.63
2019-01-15T22:13:41.168Z,-3.61
2019-01-15T22:16:21.938Z,-3.64
2019-01-15T22:19:08.706Z,-3.67
2019-01-15T22:21:53.980Z,-3.57
2019-01-15T22:24:44.197Z,-3.52
2019-01-15T22:27:34.338Z,-3.47
2019-01-15T22:30:24.094Z,-3.41
2019-01-15T22:33:15.593Z,-3.44
2019-01-15T22:36:04.222Z,-3.45
2019-01-15T22:38:57.489Z,-3.46
2019-01-15T22:41:50.485Z,-3.50
2019-01-15T22:44:40.596Z,-3.51
2019-01-15T22:47:29.296Z,-3.59
2019-01-15T22:50:24.502Z,-3.59
2019-01-15T22:53:14.687Z,-3.55
2019-01-15T22:59:04.061Z,-3.61
2019-01-15T23:02:02.024Z,-3.61
2019-01-15T23:04:52.237Z,-3.63
2019-01-15T23:07:37.392Z,-3.63
2019-01-15T23:10:27.192Z,-3.64
2019-01-15T23:13:08.846Z,-3.66
2019-01-15T23:16:02.088Z,-3.72
2019-01-15T23:19:01.494Z,-3.77
2019-01-15T23:21:58.474Z,-3.74
2019-01-15T23:24:47.033Z,-3.72
2019-01-15T23:27:45.464Z,-3.79
2019-01-15T23:30:39.993Z,-3.86
2019-01-15T23:33:36.369Z,-3.92
2019-01-15T23:36:41.665Z,-3.89
2019-01-15T23:39:30.681Z,-3.93
2019-01-15T23:42:19.554Z,-3.95
2019-01-15T23:45:09.311Z,-4.03
2019-01-15T23:47:51.286Z,-4.04
2019-01-15T23:50:44.253Z,-4.05
2019-01-15T23:53:52.892Z,-4.13
2019-01-15T23:56:49.154Z,-4.17
2019-01-15T23:59:48.243Z,-4.18
